createdAt,value
2023-01-03T00:04:29.106Z,100832.78
2023-01-03T00:09:30.946Z,100827.53
2023-01-03T00:14:35.547Z,100834.06
2023-01-03T00:19:43.251Z,100840.69
2023-01-03T00:24:46.437Z,100839.91
2023-01-03T00:29:48.077Z,100833.72
2023-01-03T00:34:49.711Z,100847.56
2023-01-03T00:39:51.365Z,100845.91
2023-01-03T00:44:52.963Z,100843.84
2023-01-03T00:49:54.841Z,100840.44
2023-01-03T00:54:56.649Z,100849.31
2023-01-03T00:59:58.249Z,100865.16
2023-01-03T01:05:00.166Z,100873.50
2023-01-03T01:10:02.319Z,100877.91
2023-01-03T01:15:04.489Z,100886.94
2023-01-03T01:20:07.284Z,100891.94
2023-01-03T01:25:08.946Z,100895.09
2023-01-03T01:30:10.614Z,100909.34
2023-01-03T01:35:12.220Z,100912.34
2023-01-03T01:40:13.924Z,100914.28
2023-01-03T01:45:15.584Z,100911.91
2023-01-03T01:50:29.361Z,100903.13
2023-01-03T01:55:45.169Z,100913.56
2023-01-03T02:00:46.786Z,100910.44
2023-01-03T02:05:53.630Z,100918.00
2023-01-03T02:11:15.944Z,100912.94
2023-01-03T02:16:35.884Z,100904.81
2023-01-03T02:21:46.504Z,100903.09
2023-01-03T02:27:13.151Z,100913.06
2023-01-03T02:32:43.165Z,100916.25
2023-01-03T02:37:54.165Z,100927.72
2023-01-03T02:43:17.075Z,100924.78
2023-01-03T02:48:31.116Z,100934.59
2023-01-03T02:53:42.011Z,100938.16
2023-01-03T02:58:47.880Z,100941.53
2023-01-03T03:03:52.526Z,100934.88
2023-01-03T03:08:54.354Z,100931.03
2023-01-03T03:14:22.531Z,100947.22
2023-01-03T03:19:54.289Z,100965.19
2023-01-03T03:24:59.502Z,100970.56
2023-01-03T03:30:03.945Z,100962.91
2023-01-03T03:35:10.715Z,100958.16
2023-01-03T03:40:32.572Z,100960.66
2023-01-03T03:46:21.784Z,100968.28
2023-01-03T03:51:28.819Z,100980.19
2023-01-03T03:56:32.756Z,100974.97
2023-01-03T04:01:37.848Z,100976.84
2023-01-03T04:06:49.175Z,100970.47
2023-01-03T04:11:50.921Z,100970.31
2023-01-03T04:16:52.573Z,100972.78
2023-01-03T04:21:54.226Z,100982.09
2023-01-03T04:26:56.059Z,100990.34
2023-01-03T04:31:57.715Z,100986.84
2023-01-03T04:36:59.344Z,101000.38
2023-01-03T04:42:01.574Z,101000.63
2023-01-03T04:47:03.517Z,101004.75
2023-01-03T04:52:05.230Z,101009.19
2023-01-03T04:57:07.512Z,101012.06
2023-01-03T05:02:09.233Z,101006.00
2023-01-03T05:07:11.059Z,101022.81
2023-01-03T05:12:12.838Z,101020.56
2023-01-03T05:17:14.435Z,101016.13
2023-01-03T05:22:34.759Z,101022.28
2023-01-03T05:27:36.431Z,101020.78
2023-01-03T05:32:37.994Z,101029.25
2023-01-03T05:37:39.747Z,101017.13
2023-01-03T05:42:41.357Z,101023.13
2023-01-03T05:47:42.960Z,101032.41
2023-01-03T05:52:44.563Z,101032.41
2023-01-03T05:57:47.331Z,101032.34
2023-01-03T06:02:49.225Z,101053.00
2023-01-03T06:07:50.880Z,101050.19
2023-01-03T06:12:52.519Z,101059.88
2023-01-03T06:18:02.943Z,101070.53
2023-01-03T06:23:04.543Z,101074.53
2023-01-03T06:28:06.188Z,101067.81
2023-01-03T06:33:08.146Z,101069.06
2023-01-03T06:38:09.988Z,101075.59
2023-01-03T06:43:11.617Z,101087.28
2023-01-03T06:48:31.903Z,101099.66
2023-01-03T06:53:37.570Z,101101.41
2023-01-03T06:58:39.213Z,101114.81
2023-01-03T07:03:40.817Z,101108.09
2023-01-03T07:08:47.848Z,101109.47
2023-01-03T07:13:59.607Z,101112.75
2023-01-03T07:19:02.276Z,101119.13
2023-01-03T07:24:05.855Z,101130.81
2023-01-03T07:29:09.548Z,101140.88
2023-01-03T07:34:11.202Z,101146.59
2023-01-03T07:39:12.858Z,101142.38
2023-01-03T07:44:14.454Z,101162.38
2023-01-03T07:49:16.077Z,101146.00
2023-01-03T07:54:17.679Z,101144.94
2023-01-03T07:59:19.843Z,101165.19
2023-01-03T08:04:21.726Z,101172.38
2023-01-03T08:09:43.573Z,101184.41
2023-01-03T08:14:45.355Z,101181.69
2023-01-03T08:19:46.969Z,101178.78
2023-01-03T08:24:48.584Z,101179.19
2023-01-03T08:29:50.254Z,101183.16
2023-01-03T08:34:52.131Z,101199.56
2023-01-03T08:40:01.598Z,101195.78
2023-01-03T08:45:09.204Z,101200.84
2023-01-03T08:50:12.486Z,101192.41
2023-01-03T08:55:14.178Z,101202.41
2023-01-03T09:00:16.038Z,101202.00
2023-01-03T09:05:17.859Z,101213.44
2023-01-03T09:10:19.529Z,101209.75
2023-01-03T09:15:21.216Z,101209.44
2023-01-03T09:20:22.924Z,101197.72
2023-01-03T09:25:24.800Z,101215.16
2023-01-03T09:30:26.461Z,101210.78
2023-01-03T09:35:28.256Z,101212.00
2023-01-03T09:40:31.577Z,101218.16
2023-01-03T09:45:34.850Z,101223.56
2023-01-03T09:51:05.846Z,101223.84
2023-01-03T09:56:19.528Z,101214.41
2023-01-03T10:01:51.428Z,101213.34
2023-01-03T10:07:14.583Z,101214.47
2023-01-03T10:12:43.779Z,101204.78
2023-01-03T10:18:09.984Z,101204.13
2023-01-03T10:23:11.950Z,101193.06
2023-01-03T10:28:21.416Z,101189.50
2023-01-03T10:33:33.061Z,101184.81
2023-01-03T10:38:43.675Z,101180.31
2023-01-03T10:44:00.602Z,101183.31
2023-01-03T10:49:28.312Z,101186.19
2023-01-03T10:54:40.419Z,101180.78
2023-01-03T10:59:49.325Z,101172.00
2023-01-03T11:05:12.260Z,101169.53
2023-01-03T11:10:18.755Z,101170.25
2023-01-03T11:15:42.522Z,101171.75
2023-01-03T11:20:57.791Z,101164.06
2023-01-03T11:26:05.324Z,101168.81
2023-01-03T11:31:17.346Z,101153.19
2023-01-03T11:36:22.588Z,101147.63
2023-01-03T11:41:33.611Z,101159.44
2023-01-03T11:47:07.119Z,101142.34
2023-01-03T11:52:27.975Z,101142.41
2023-01-03T11:58:05.847Z,101137.78
2023-01-03T12:03:31.946Z,101131.72
2023-01-03T12:09:02.251Z,101127.03
2023-01-03T12:14:19.530Z,101142.78
2023-01-03T12:19:51.419Z,101133.88
2023-01-03T12:25:07.156Z,101137.94
2023-01-03T12:30:24.905Z,101132.34
2023-01-03T12:35:32.975Z,101128.84
2023-01-03T12:41:07.893Z,101127.38
2023-01-03T12:46:15.432Z,101131.00
2023-01-03T12:51:20.719Z,101121.69
2023-01-03T12:56:55.659Z,101121.53
2023-01-03T13:02:00.810Z,101115.16
2023-01-03T13:07:33.400Z,101116.31
2023-01-03T13:12:39.108Z,101120.00
2023-01-03T13:17:46.419Z,101114.91
2023-01-03T13:23:01.739Z,101118.75
2023-01-03T13:28:18.737Z,101114.34
2023-01-03T13:33:20.975Z,101115.44
2023-01-03T13:38:37.108Z,101115.75
2023-01-03T13:43:40.257Z,101116.69
2023-01-03T13:48:53.877Z,101121.91
2023-01-03T13:54:18.654Z,101120.09
2023-01-03T13:59:42.886Z,101112.53
2023-01-03T14:04:52.990Z,101118.41
2023-01-03T14:10:01.187Z,101130.28
2023-01-03T14:15:25.004Z,101142.03
2023-01-03T14:20:34.680Z,101139.88
2023-01-03T14:25:39.384Z,101140.44
2023-01-03T14:30:41.355Z,101141.41
2023-01-03T14:35:44.605Z,101150.41
2023-01-03T14:40:48.333Z,101154.53
2023-01-03T14:45:55.758Z,101161.06
2023-01-03T14:51:01.483Z,101154.25
2023-01-03T14:56:03.503Z,101157.06
2023-01-03T15:01:08.647Z,101151.94
2023-01-03T15:06:21.405Z,101151.78
2023-01-03T15:11:33.174Z,101149.25
2023-01-03T15:16:38.138Z,101149.88
2023-01-03T15:21:41.469Z,101144.50
2023-01-03T15:26:51.335Z,101150.78
2023-01-03T15:31:57.824Z,101156.44
2023-01-03T15:37:00.942Z,101167.06
2023-01-03T15:47:43.877Z,101178.34
2023-01-03T15:52:48.976Z,101184.22
2023-01-03T15:57:52.603Z,101174.06
2023-01-03T16:02:54.382Z,101185.78
2023-01-03T16:07:56.068Z,101198.47
2023-01-03T16:12:57.727Z,101195.97
2023-01-03T16:17:59.366Z,101199.84
2023-01-03T16:23:02.021Z,101202.34
2023-01-03T16:28:10.201Z,101218.03
2023-01-03T16:33:21.029Z,101205.38
2023-01-03T16:38:25.596Z,101220.00
2023-01-03T16:43:27.623Z,101223.94
2023-01-03T16:48:40.410Z,101223.84
2023-01-03T16:53:42.010Z,101229.25
2023-01-03T16:58:43.687Z,101229.97
2023-01-03T17:03:45.891Z,101245.75
2023-01-03T17:08:47.624Z,101233.16
2023-01-03T17:13:49.623Z,101243.63
2023-01-03T17:18:53.422Z,101243.63
2023-01-03T17:24:00.759Z,101249.50
2023-01-03T17:29:04.729Z,101260.38
2023-01-03T17:34:28.048Z,101257.81
2023-01-03T17:39:29.851Z,101261.09
2023-01-03T17:44:31.455Z,101260.97
2023-01-03T17:49:33.090Z,101261.75
2023-01-03T17:54:40.465Z,101263.13
2023-01-03T17:59:42.130Z,101271.28
2023-01-03T18:05:14.138Z,101276.19
2023-01-03T18:10:07.603Z,101281.19
2023-01-03T18:15:21.351Z,101271.94
2023-01-03T18:20:23.180Z,101277.75
2023-01-03T18:25:25.904Z,101284.34
2023-01-03T18:30:27.796Z,101284.19
2023-01-03T18:35:37.249Z,101280.63
2023-01-03T18:40:40.906Z,101282.13
2023-01-03T18:45:42.680Z,101279.56
2023-01-03T18:50:49.402Z,101282.06
2023-01-03T18:55:53.556Z,101291.22
2023-01-03T19:00:55.284Z,101281.91
2023-01-03T19:05:59.344Z,101286.94
2023-01-03T19:11:07.573Z,101295.38
2023-01-03T19:16:09.315Z,101298.69
2023-01-03T19:21:14.485Z,101300.25
2023-01-03T19:26:27.283Z,101292.81
2023-01-03T19:31:39.231Z,101300.25
2023-01-03T19:36:41.079Z,101294.09
2023-01-03T19:42:07.769Z,101307.59
2023-01-03T19:47:17.825Z,101310.28
2023-01-03T19:52:19.412Z,101301.19
2023-01-03T19:57:24.709Z,101308.69
2023-01-03T20:02:32.390Z,101297.75
2023-01-03T20:07:34.287Z,101295.69
2023-01-03T20:12:35.937Z,101303.47
2023-01-03T20:17:37.534Z,101310.09
2023-01-03T20:28:02.083Z,101318.44
2023-01-03T20:33:04.064Z,101313.75
2023-01-03T20:38:05.690Z,101314.84
2023-01-03T20:43:13.581Z,101316.56
2023-01-03T20:48:24.729Z,101317.19
2023-01-03T20:53:27.541Z,101308.41
2023-01-03T20:58:29.354Z,101310.00
2023-01-03T21:03:31.053Z,101312.69
2023-01-03T21:08:51.309Z,101327.16
2023-01-03T21:13:53.607Z,101330.69
2023-01-03T21:18:55.818Z,101327.69
2023-01-03T21:23:57.518Z,101324.31
2023-01-03T21:28:59.724Z,101322.69
2023-01-03T21:34:03.136Z,101322.69
2023-01-03T21:39:05.017Z,101323.56
2023-01-03T21:44:07.855Z,101322.56
2023-01-03T21:49:09.519Z,101320.56
2023-01-03T21:54:11.853Z,101324.19
2023-01-03T21:59:15.688Z,101336.78
2023-01-03T22:04:17.385Z,101332.53
2023-01-03T22:09:38.061Z,101333.00
2023-01-03T22:14:39.929Z,101340.28
2023-01-03T22:19:41.996Z,101346.59
2023-01-03T22:24:43.866Z,101347.00
2023-01-03T22:29:45.497Z,101343.28
2023-01-03T22:34:47.101Z,101345.56
2023-01-03T22:39:48.764Z,101346.75
2023-01-03T22:44:50.408Z,101356.69
2023-01-03T22:49:52.059Z,101352.09
2023-01-03T22:54:53.657Z,101350.84
2023-01-03T22:59:55.297Z,101351.19
2023-01-03T23:04:57.122Z,101344.94
2023-01-03T23:09:58.735Z,101355.16
2023-01-03T23:15:00.325Z,101346.34
2023-01-03T23:20:02.175Z,101355.22
2023-01-03T23:25:03.942Z,101346.72
2023-01-03T23:30:06.159Z,101344.41
2023-01-03T23:35:08.950Z,101347.41
2023-01-03T23:40:11.198Z,101347.03
2023-01-03T23:45:12.883Z,101340.00
2023-01-03T23:50:14.515Z,101343.25
2023-01-03T23:55:16.191Z,101324.19
